createdAt,value
2024-03-15T00:01:03.705Z,64.20
2024-03-15T00:03:30.800Z,64.30
2024-03-15T00:05:58.666Z,64.40
2024-03-15T00:08:25.558Z,64.40
2024-03-15T00:10:52.272Z,64.50
2024-03-15T00:13:19.234Z,64.50
2024-03-15T00:15:46.275Z,64.50
2024-03-15T00:18:13.355Z,64.40
2024-03-15T00:20:40.306Z,64.40
2024-03-15T00:23:08.643Z,64.30
2024-03-15T00:25:35.700Z,64.30
2024-03-15T00:28:03.158Z,64.20
2024-03-15T00:30:29.968Z,64.20
2024-03-15T00:32:56.866Z,64.10
2024-03-15T00:35:23.602Z,64.10
2024-03-15T00:37:50.620Z,64.10
2024-03-15T00:40:17.482Z,64.20
2024-03-15T00:42:44.384Z,64.20
2024-03-15T00:45:11.394Z,64.20
2024-03-15T00:47:38.460Z,64.20
2024-03-15T00:50:06.146Z,64.20
2024-03-15T00:52:33.164Z,64.10
2024-03-15T00:54:59.860Z,64.00
2024-03-15T00:57:26.658Z,64.00
2024-03-15T00:59:53.697Z,63.90
2024-03-15T01:02:20.437Z,63.90
2024-03-15T01:04:47.112Z,63.80
2024-03-15T01:07:13.873Z,63.80
2024-03-15T01:09:40.753Z,63.90
2024-03-15T01:12:07.520Z,64.00
2024-03-15T01:14:34.245Z,64.00
2024-03-15T01:17:00.981Z,64.10
2024-03-15T01:19:28.337Z,64.10
2024-03-15T01:21:55.545Z,64.10
2024-03-15T01:24:22.498Z,64.10
2024-03-15T01:26:49.212Z,64.00
2024-03-15T01:29:16.150Z,64.00
2024-03-15T01:31:45.967Z,64.00
2024-03-15T01:34:14.079Z,64.10
2024-03-15T01:36:40.884Z,64.10
2024-03-15T01:39:07.737Z,64.20
2024-03-15T01:41:34.644Z,64.20
2024-03-15T01:44:02.261Z,64.30
2024-03-15T01:46:29.656Z,64.40
2024-03-15T01:48:56.838Z,64.40
2024-03-15T01:51:24.243Z,64.40
2024-03-15T01:53:51.416Z,64.50
2024-03-15T01:56:18.470Z,64.50
2024-03-15T01:58:46.177Z,64.50
2024-03-15T02:01:13.095Z,64.50
2024-03-15T02:03:40.123Z,64.50
2024-03-15T02:06:07.079Z,64.50
2024-03-15T02:08:34.894Z,64.50
2024-03-15T02:11:01.731Z,64.50
2024-03-15T02:13:28.454Z,64.50
2024-03-15T02:15:55.451Z,64.50
2024-03-15T02:18:22.572Z,64.40
2024-03-15T02:20:49.571Z,64.40
2024-03-15T02:23:16.249Z,64.30
2024-03-15T02:25:43.058Z,64.30
2024-03-15T02:28:09.801Z,64.30
2024-03-15T02:30:36.725Z,64.40
2024-03-15T02:33:03.644Z,64.50
2024-03-15T02:35:32.936Z,64.50
2024-03-15T02:38:00.257Z,64.40
2024-03-15T02:40:27.160Z,64.40
2024-03-15T02:42:54.145Z,64.40
2024-03-15T02:45:22.895Z,64.40
2024-03-15T02:47:50.221Z,64.40
2024-03-15T02:50:18.391Z,64.30
2024-03-15T02:52:48.686Z,64.30
2024-03-15T02:55:15.734Z,64.30
2024-03-15T02:57:42.518Z,64.30
2024-03-15T03:00:10.047Z,64.40
2024-03-15T03:02:36.965Z,64.40
2024-03-15T03:05:03.800Z,64.40
2024-03-15T03:07:30.525Z,64.50
2024-03-15T03:09:57.321Z,64.50
2024-03-15T03:12:24.059Z,64.60
2024-03-15T03:14:50.929Z,64.60
2024-03-15T03:17:17.735Z,64.60
2024-03-15T03:19:44.444Z,64.60
2024-03-15T03:22:11.312Z,64.70
2024-03-15T03:24:38.386Z,64.70
2024-03-15T03:27:06.660Z,64.80
2024-03-15T03:29:33.483Z,64.80
2024-03-15T03:32:00.306Z,64.80
2024-03-15T03:34:27.006Z,64.70
2024-03-15T03:36:53.887Z,64.70
2024-03-15T03:39:21.907Z,64.70
2024-03-15T03:41:49.562Z,64.60
2024-03-15T03:44:19.045Z,64.60
2024-03-15T03:46:45.777Z,64.50
2024-03-15T03:49:12.491Z,64.50
2024-03-15T03:51:39.813Z,64.60
2024-03-15T03:54:06.625Z,64.60
2024-03-15T03:56:33.362Z,64.60
2024-03-15T03:59:00.459Z,64.70
2024-03-15T04:01:27.555Z,64.80
2024-03-15T04:03:54.390Z,64.70
2024-03-15T04:06:21.268Z,64.80
2024-03-15T04:08:49.724Z,64.80
2024-03-15T04:11:16.656Z,64.80
2024-03-15T04:13:43.424Z,64.80
2024-03-15T04:16:10.494Z,64.80
2024-03-15T04:18:37.916Z,64.80
2024-03-15T04:21:04.705Z,64.90
2024-03-15T04:23:31.695Z,64.80
2024-03-15T04:25:58.823Z,64.90
2024-03-15T04:28:25.902Z,64.90
2024-03-15T04:30:57.811Z,64.90
2024-03-15T04:33:24.551Z,65.00
2024-03-15T04:35:51.309Z,65.00
2024-03-15T04:38:18.028Z,65.10
2024-03-15T04:40:44.858Z,65.10
2024-03-15T04:43:12.038Z,65.10
2024-03-15T04:45:39.451Z,65.30
2024-03-15T04:48:06.876Z,65.30
2024-03-15T04:50:33.813Z,65.30
2024-03-15T04:53:00.512Z,65.40
2024-03-15T04:55:29.218Z,65.30
2024-03-15T04:57:57.589Z,65.30
2024-03-15T05:00:24.786Z,65.20
2024-03-15T05:02:52.992Z,65.20
2024-03-15T05:05:22.123Z,65.10
2024-03-15T05:07:49.057Z,65.20
2024-03-15T05:10:16.948Z,65.20
2024-03-15T05:12:45.247Z,65.20
2024-03-15T05:15:12.596Z,65.20
2024-03-15T05:17:40.273Z,65.40
2024-03-15T05:20:11.263Z,65.40
2024-03-15T05:22:38.239Z,65.40
2024-03-15T05:25:10.489Z,65.50
2024-03-15T05:27:37.592Z,65.50
2024-03-15T05:30:06.265Z,65.60
2024-03-15T05:32:33.274Z,65.60
2024-03-15T05:35:01.292Z,65.60
2024-03-15T05:37:29.115Z,65.60
2024-03-15T05:39:56.129Z,65.60
2024-03-15T05:42:23.388Z,65.70
2024-03-15T05:44:50.155Z,65.70
2024-03-15T05:47:17.773Z,65.80
2024-03-15T05:49:44.797Z,65.80
2024-03-15T05:52:12.052Z,65.80
2024-03-15T05:54:39.167Z,65.80
2024-03-15T05:57:06.229Z,65.80
2024-03-15T05:59:33.126Z,65.80
2024-03-15T06:02:00.614Z,65.80
2024-03-15T06:04:27.448Z,65.80
2024-03-15T06:06:54.378Z,65.90
2024-03-15T06:09:21.232Z,65.90
2024-03-15T06:11:50.292Z,65.90
2024-03-15T06:14:18.972Z,66.00
2024-03-15T06:16:46.746Z,65.90
2024-03-15T06:19:13.982Z,66.30
2024-03-15T06:21:40.917Z,66.40
2024-03-15T06:24:07.932Z,66.50
2024-03-15T06:26:34.719Z,66.80
2024-03-15T06:29:01.697Z,66.90
2024-03-15T06:31:28.733Z,66.90
2024-03-15T06:33:57.925Z,67.10
2024-03-15T06:36:30.776Z,67.20
2024-03-15T06:39:10.075Z,67.30
2024-03-15T06:41:42.005Z,67.60
2024-03-15T06:44:14.704Z,67.60
2024-03-15T06:47:00.162Z,67.50
2024-03-15T06:49:34.765Z,67.60
2024-03-15T06:52:20.274Z,67.50
2024-03-15T06:54:47.090Z,67.50
2024-03-15T06:57:14.030Z,67.60
2024-03-15T06:59:42.724Z,67.50
2024-03-15T07:02:09.796Z,67.50
2024-03-15T07:04:36.493Z,67.60
2024-03-15T07:07:03.187Z,67.60
2024-03-15T07:09:29.927Z,67.70
2024-03-15T07:11:59.178Z,67.80
2024-03-15T07:14:25.875Z,67.90
2024-03-15T07:16:52.570Z,67.90
2024-03-15T07:19:22.394Z,67.90
2024-03-15T07:21:49.235Z,67.90
2024-03-15T07:24:16.041Z,67.70
2024-03-15T07:26:42.879Z,67.70
2024-03-15T07:29:10.212Z,67.80
2024-03-15T07:31:36.969Z,67.90
2024-03-15T07:34:03.806Z,68.00
2024-03-15T07:36:30.851Z,68.00
2024-03-15T07:38:57.733Z,68.10
2024-03-15T07:41:28.988Z,68.20
2024-03-15T07:43:56.001Z,68.40
2024-03-15T07:46:23.347Z,68.40
2024-03-15T07:48:51.154Z,68.40
2024-03-15T07:51:18.211Z,68.50
2024-03-15T07:53:46.476Z,68.50
2024-03-15T07:56:13.719Z,68.40
2024-03-15T07:58:40.808Z,68.60
2024-03-15T08:01:10.721Z,68.50
2024-03-15T08:03:39.007Z,68.50
2024-03-15T08:06:08.647Z,68.50
2024-03-15T08:08:35.891Z,69.00
2024-03-15T08:11:06.515Z,68.40
2024-03-15T08:13:34.981Z,68.30
2024-03-15T08:16:19.204Z,68.10
2024-03-15T08:18:49.981Z,68.00
2024-03-15T08:21:17.330Z,67.80
2024-03-15T08:23:45.924Z,67.50
2024-03-15T08:26:15.832Z,67.50
2024-03-15T08:28:42.602Z,67.50
2024-03-15T08:31:09.497Z,67.60
2024-03-15T08:33:36.771Z,67.80
2024-03-15T08:36:03.924Z,67.70
2024-03-15T08:38:31.156Z,67.80
2024-03-15T08:40:57.937Z,67.90
2024-03-15T08:43:24.753Z,68.00
2024-03-15T08:45:51.815Z,67.60
2024-03-15T08:48:19.144Z,67.60
2024-03-15T08:50:47.963Z,68.00
2024-03-15T08:53:15.109Z,67.10
2024-03-15T08:55:43.410Z,66.70
2024-03-15T08:58:12.937Z,66.70
2024-03-15T09:00:39.771Z,66.30
2024-03-15T09:03:11.015Z,65.80
2024-03-15T09:05:39.040Z,65.60
2024-03-15T09:08:07.871Z,65.70
2024-03-15T09:10:36.236Z,65.50
2024-03-15T09:13:03.258Z,65.20
2024-03-15T09:15:30.101Z,65.20
2024-03-15T09:18:00.588Z,65.30
2024-03-15T09:20:39.440Z,65.10
2024-03-15T09:23:07.364Z,64.90
2024-03-15T09:25:34.285Z,64.70
2024-03-15T09:28:01.531Z,64.80
2024-03-15T09:30:39.719Z,64.90
2024-03-15T09:33:13.143Z,64.70
2024-03-15T09:35:45.600Z,64.60
2024-03-15T09:38:13.567Z,64.70
2024-03-15T09:40:40.432Z,64.60
2024-03-15T09:43:14.109Z,64.20
2024-03-15T09:45:41.316Z,63.90
2024-03-15T09:48:12.457Z,63.50
2024-03-15T09:50:41.592Z,63.20
2024-03-15T09:53:10.705Z,63.30
2024-03-15T09:55:37.759Z,63.20
2024-03-15T09:58:08.108Z,63.20
2024-03-15T10:00:34.903Z,63.30
2024-03-15T10:03:01.631Z,63.40
2024-03-15T10:05:29.211Z,63.50
2024-03-15T10:07:56.256Z,63.20
2024-03-15T10:10:23.098Z,63.00
2024-03-15T10:12:53.955Z,62.70
2024-03-15T10:15:22.227Z,62.50
2024-03-15T10:17:53.818Z,62.90
2024-03-15T10:20:22.712Z,62.60
2024-03-15T10:22:52.898Z,62.70
2024-03-15T10:25:23.736Z,62.70
2024-03-15T10:27:56.680Z,62.90
2024-03-15T10:30:30.512Z,62.60
2024-03-15T10:32:59.501Z,62.60
2024-03-15T10:35:29.156Z,62.30
2024-03-15T10:37:56.487Z,62.30
2024-03-15T10:40:27.768Z,62.20
2024-03-15T10:42:58.044Z,61.90
2024-03-15T10:45:25.975Z,61.90
2024-03-15T10:47:57.427Z,61.70
2024-03-15T10:50:26.045Z,61.00
2024-03-15T10:52:55.823Z,61.40
2024-03-15T10:55:30.853Z,60.80
2024-03-15T10:58:01.165Z,60.60
2024-03-15T11:00:29.916Z,60.60
2024-03-15T11:02:58.618Z,60.60
2024-03-15T11:05:32.818Z,60.90
2024-03-15T11:08:05.519Z,60.40
2024-03-15T11:10:32.337Z,59.80
2024-03-15T11:13:00.561Z,59.50
2024-03-15T11:15:33.357Z,59.30
2024-03-15T11:18:08.207Z,59.30
2024-03-15T11:20:49.126Z,58.90
2024-03-15T11:23:18.099Z,58.90
2024-03-15T11:25:57.911Z,59.00
2024-03-15T11:28:29.254Z,58.40
2024-03-15T11:30:56.430Z,58.60
2024-03-15T11:33:23.820Z,58.50
2024-03-15T11:35:52.245Z,58.70
2024-03-15T11:38:22.188Z,58.70
2024-03-15T11:40:53.250Z,58.00
2024-03-15T11:43:20.197Z,58.10
2024-03-15T11:45:48.344Z,57.90
2024-03-15T11:48:20.644Z,57.80
2024-03-15T11:50:49.417Z,57.50
2024-03-15T11:53:18.959Z,58.10
2024-03-15T11:55:50.410Z,57.80
2024-03-15T11:58:21.726Z,57.00
2024-03-15T12:00:53.960Z,57.00
2024-03-15T12:03:25.504Z,57.30
2024-03-15T12:05:52.917Z,57.80
2024-03-15T12:08:21.736Z,57.80
2024-03-15T12:10:50.344Z,57.70
2024-03-15T12:13:29.651Z,57.50
2024-03-15T12:15:59.060Z,57.30
2024-03-15T12:18:27.259Z,58.00
2024-03-15T12:20:54.228Z,57.80
2024-03-15T12:23:22.830Z,57.30
2024-03-15T12:25:51.112Z,56.90
2024-03-15T12:28:19.855Z,56.40
2024-03-15T12:30:47.941Z,56.90
2024-03-15T12:33:15.129Z,57.10
2024-03-15T12:35:44.618Z,56.90
2024-03-15T12:38:19.315Z,57.20
2024-03-15T12:40:46.604Z,57.30
2024-03-15T12:43:13.902Z,58.40
2024-03-15T12:45:42.918Z,60.00
2024-03-15T12:48:13.653Z,61.10
2024-03-15T12:50:41.285Z,62.50
2024-03-15T12:53:17.705Z,63.60
2024-03-15T12:55:44.525Z,65.40
2024-03-15T12:58:11.806Z,65.70
2024-03-15T13:00:39.036Z,66.00
2024-03-15T13:03:06.405Z,65.70
2024-03-15T13:05:34.099Z,66.90
2024-03-15T13:08:01.253Z,66.00
2024-03-15T13:10:28.093Z,66.70
2024-03-15T13:12:57.648Z,66.70
2024-03-15T13:15:24.939Z,67.60
2024-03-15T13:17:54.075Z,68.40
2024-03-15T13:20:22.595Z,68.90
2024-03-15T13:22:56.486Z,67.80
2024-03-15T13:25:34.541Z,67.80
2024-03-15T13:28:09.215Z,66.40
2024-03-15T13:30:38.035Z,66.00
2024-03-15T13:33:07.562Z,65.40
2024-03-15T13:35:34.458Z,64.70
2024-03-15T13:38:01.147Z,64.50
2024-03-15T13:40:27.963Z,63.20
2024-03-15T13:42:55.534Z,62.50
2024-03-15T13:45:24.410Z,61.70
2024-03-15T13:47:54.947Z,61.00
2024-03-15T13:50:21.633Z,60.90
2024-03-15T13:52:49.454Z,60.90
2024-03-15T13:55:16.710Z,61.00
2024-03-15T13:57:45.868Z,60.50
2024-03-15T14:00:33.470Z,60.20
2024-03-15T14:03:03.149Z,60.20
2024-03-15T14:05:38.716Z,60.50
2024-03-15T14:08:09.285Z,59.60
2024-03-15T14:10:40.632Z,59.00
2024-03-15T14:13:08.641Z,59.00
2024-03-15T14:15:38.739Z,59.80
2024-03-15T14:18:09.964Z,60.40
2024-03-15T14:20:37.870Z,63.00
2024-03-15T14:23:05.947Z,63.20
2024-03-15T14:25:33.784Z,63.80
2024-03-15T14:28:07.176Z,64.30
2024-03-15T14:30:35.623Z,65.70
2024-03-15T14:33:03.794Z,66.70
2024-03-15T14:35:31.456Z,68.30
2024-03-15T14:37:58.305Z,69.80
2024-03-15T14:40:30.245Z,71.20
2024-03-15T14:42:57.256Z,72.30
2024-03-15T14:45:27.646Z,73.20
2024-03-15T14:48:04.231Z,74.10
2024-03-15T14:50:37.905Z,74.80
2024-03-15T14:53:05.734Z,75.40
2024-03-15T14:55:36.413Z,76.20
2024-03-15T14:58:05.140Z,76.90
2024-03-15T15:00:33.065Z,77.40
2024-03-15T15:03:00.555Z,77.60
2024-03-15T15:05:27.953Z,77.90
2024-03-15T15:08:00.052Z,78.10
2024-03-15T15:10:28.987Z,78.40
2024-03-15T15:12:59.206Z,78.70
2024-03-15T15:15:28.046Z,79.30
2024-03-15T15:17:56.146Z,79.80
2024-03-15T15:20:23.241Z,80.30
2024-03-15T15:22:51.532Z,80.40
2024-03-15T15:25:21.231Z,80.50
2024-03-15T15:27:49.395Z,80.70
2024-03-15T15:30:20.573Z,80.70
2024-03-15T15:32:50.674Z,80.80
2024-03-15T15:35:17.805Z,80.80
2024-03-15T15:37:45.173Z,80.90
2024-03-15T15:40:25.711Z,81.10
2024-03-15T15:42:56.303Z,81.30
2024-03-15T15:45:31.602Z,81.20
2024-03-15T15:47:58.798Z,81.20
2024-03-15T15:50:25.885Z,81.40
2024-03-15T15:52:52.814Z,81.50
2024-03-15T15:55:20.222Z,81.60
2024-03-15T15:57:50.003Z,81.80
2024-03-15T16:00:20.228Z,81.80
2024-03-15T16:02:48.608Z,81.90
2024-03-15T16:05:15.573Z,82.00
2024-03-15T16:07:46.329Z,82.10
2024-03-15T16:10:14.431Z,82.20
2024-03-15T16:12:41.659Z,82.30
2024-03-15T16:15:09.382Z,82.50
2024-03-15T16:17:36.202Z,82.50
2024-03-15T16:20:03.397Z,82.50
2024-03-15T16:22:33.625Z,82.50
2024-03-15T16:25:00.845Z,82.60
2024-03-15T16:27:27.759Z,82.60
2024-03-15T16:29:56.192Z,82.60
2024-03-15T16:32:23.620Z,82.70
2024-03-15T16:34:51.197Z,82.80
2024-03-15T16:37:18.131Z,82.80
2024-03-15T16:39:45.747Z,82.90
2024-03-15T16:42:13.774Z,83.00
2024-03-15T16:44:41.044Z,82.80
2024-03-15T16:47:07.757Z,82.80
2024-03-15T16:49:34.566Z,82.90
2024-03-15T16:52:01.408Z,82.80
2024-03-15T16:54:28.272Z,82.70
2024-03-15T16:56:55.527Z,82.80
2024-03-15T16:59:22.269Z,82.80
2024-03-15T17:01:49.239Z,82.80
2024-03-15T17:04:15.979Z,82.90
2024-03-15T17:06:42.759Z,82.90
2024-03-15T17:09:13.321Z,82.80
2024-03-15T17:11:40.656Z,82.80
2024-03-15T17:14:07.464Z,82.80
2024-03-15T17:16:34.238Z,82.80
2024-03-15T17:19:02.100Z,82.80
2024-03-15T17:21:28.898Z,82.90
2024-03-15T17:23:55.653Z,82.80
2024-03-15T17:26:22.403Z,82.80
2024-03-15T17:28:49.175Z,83.00
2024-03-15T17:31:16.440Z,83.20
2024-03-15T17:33:43.210Z,83.00
2024-03-15T17:36:10.209Z,82.90
2024-03-15T17:38:36.982Z,82.90
2024-03-15T17:41:04.032Z,82.80
2024-03-15T17:43:30.788Z,82.80
2024-03-15T17:45:57.832Z,82.90
2024-03-15T17:48:26.284Z,83.00
2024-03-15T17:50:54.810Z,83.10
2024-03-15T17:53:21.658Z,83.00
2024-03-15T17:55:48.690Z,83.20
2024-03-15T17:58:15.786Z,83.20
2024-03-15T18:00:42.520Z,83.30
2024-03-15T18:03:09.598Z,83.30
2024-03-15T18:05:37.199Z,83.20
2024-03-15T18:08:04.682Z,83.20
2024-03-15T18:10:31.501Z,83.20
2024-03-15T18:12:58.510Z,83.10
2024-03-15T18:15:25.693Z,83.20
2024-03-15T18:17:52.901Z,83.20
2024-03-15T18:20:19.738Z,83.30
2024-03-15T18:22:46.455Z,83.40
2024-03-15T18:25:13.839Z,83.60
2024-03-15T18:27:40.679Z,83.70
2024-03-15T18:30:09.675Z,83.70
2024-03-15T18:32:37.510Z,83.80
2024-03-15T18:35:05.341Z,83.70
2024-03-15T18:37:33.046Z,83.60
2024-03-15T18:39:59.905Z,83.50
2024-03-15T18:42:27.609Z,83.60
2024-03-15T18:44:54.421Z,83.60
2024-03-15T18:47:21.130Z,83.60
2024-03-15T18:49:48.557Z,83.70
2024-03-15T18:52:16.476Z,83.60
2024-03-15T18:54:49.627Z,83.50
2024-03-15T18:57:17.548Z,83.50
2024-03-15T18:59:45.600Z,83.50
2024-03-15T19:02:16.788Z,83.50
2024-03-15T19:04:43.510Z,83.60
2024-03-15T19:07:10.301Z,83.60
2024-03-15T19:09:39.524Z,83.60
2024-03-15T19:12:06.733Z,83.70
2024-03-15T19:14:33.473Z,83.70
2024-03-15T19:17:00.776Z,83.80
2024-03-15T19:19:27.633Z,83.80
2024-03-15T19:21:54.377Z,83.80
2024-03-15T19:24:21.081Z,83.80
2024-03-15T19:26:47.950Z,83.80
2024-03-15T19:29:14.628Z,83.80
2024-03-15T19:31:41.372Z,83.90
2024-03-15T19:34:08.825Z,83.80
2024-03-15T19:36:35.707Z,83.90
2024-03-15T19:39:03.457Z,83.90
2024-03-15T19:41:30.235Z,83.90
2024-03-15T19:43:56.951Z,84.00
2024-03-15T19:46:23.636Z,83.90
2024-03-15T19:48:51.510Z,84.00
2024-03-15T19:51:18.255Z,84.00
2024-03-15T19:53:44.992Z,84.00
2024-03-15T19:56:11.688Z,84.10
2024-03-15T19:58:38.397Z,84.10
2024-03-15T20:01:08.326Z,84.10
2024-03-15T20:03:35.634Z,84.10
2024-03-15T20:06:02.408Z,84.10
2024-03-15T20:08:29.152Z,84.20
2024-03-15T20:10:56.127Z,84.30
2024-03-15T20:13:23.275Z,84.30
2024-03-15T20:15:50.164Z,84.30
2024-03-15T20:18:17.206Z,84.90
2024-03-15T20:20:48.510Z,84.30
2024-03-15T20:23:15.242Z,84.40
2024-03-15T20:25:43.499Z,84.40
2024-03-15T20:28:10.393Z,84.40
2024-03-15T20:30:38.030Z,84.50
2024-03-15T20:33:05.719Z,84.60
2024-03-15T20:35:32.479Z,84.60
2024-03-15T20:38:01.234Z,84.60
2024-03-15T20:40:28.608Z,84.60
2024-03-15T20:42:56.243Z,84.60
2024-03-15T20:45:23.566Z,84.60
2024-03-15T20:47:50.915Z,84.60
2024-03-15T20:50:18.231Z,84.60
2024-03-15T20:52:45.488Z,84.60
2024-03-15T20:55:12.497Z,84.70
2024-03-15T20:57:39.653Z,84.80
2024-03-15T21:00:08.570Z,84.90
2024-03-15T21:02:35.627Z,85.20
2024-03-15T21:05:02.346Z,85.50
2024-03-15T21:07:29.218Z,85.70
2024-03-15T21:09:55.928Z,85.90
2024-03-15T21:12:27.927Z,86.10
2024-03-15T21:14:54.666Z,86.20
2024-03-15T21:17:21.433Z,86.40
2024-03-15T21:19:52.791Z,86.30
2024-03-15T21:22:19.864Z,86.20
2024-03-15T21:24:49.457Z,85.90
2024-03-15T21:27:18.246Z,85.70
2024-03-15T21:29:44.992Z,85.40
2024-03-15T21:32:11.725Z,85.40
2024-03-15T21:34:38.544Z,85.40
2024-03-15T21:37:05.402Z,85.40
2024-03-15T21:39:32.300Z,86.00
2024-03-15T21:41:59.205Z,85.40
2024-03-15T21:44:26.628Z,85.40
2024-03-15T21:46:53.423Z,85.30
2024-03-15T21:49:20.183Z,86.00
2024-03-15T21:51:48.396Z,85.40
2024-03-15T21:54:15.079Z,85.30
2024-03-15T21:56:43.687Z,85.30
2024-03-15T21:59:10.483Z,85.40
2024-03-15T22:01:38.135Z,85.40
2024-03-15T22:04:05.487Z,85.40
2024-03-15T22:06:40.237Z,85.40
2024-03-15T22:09:07.328Z,85.40
2024-03-15T22:11:34.097Z,85.40
2024-03-15T22:14:06.818Z,85.50
2024-03-15T22:16:34.540Z,85.40
2024-03-15T22:19:01.804Z,85.40
2024-03-15T22:21:28.773Z,85.50
2024-03-15T22:23:55.465Z,85.60
2024-03-15T22:26:22.360Z,85.70
2024-03-15T22:28:49.029Z,85.80
2024-03-15T22:31:16.621Z,85.90
2024-03-15T22:33:43.802Z,86.00
2024-03-15T22:36:10.952Z,86.10
2024-03-15T22:38:37.772Z,86.10
2024-03-15T22:41:04.602Z,86.10
2024-03-15T22:43:32.349Z,86.10
2024-03-15T22:46:00.554Z,86.00
2024-03-15T22:48:27.488Z,86.10
2024-03-15T22:50:56.688Z,86.00
2024-03-15T22:53:23.393Z,85.90
2024-03-15T22:55:51.255Z,85.80
2024-03-15T22:58:18.005Z,85.60
2024-03-15T23:00:46.579Z,85.40
2024-03-15T23:03:15.092Z,85.00
2024-03-15T23:05:42.378Z,84.90
2024-03-15T23:08:09.391Z,84.40
2024-03-15T23:10:36.472Z,84.40
2024-03-15T23:13:07.615Z,84.50
2024-03-15T23:15:35.586Z,84.50
2024-03-15T23:18:03.339Z,84.50
2024-03-15T23:20:30.235Z,84.40
2024-03-15T23:22:56.928Z,84.90
2024-03-15T23:25:25.006Z,84.30
2024-03-15T23:27:52.012Z,84.40
2024-03-15T23:30:19.702Z,84.50
2024-03-15T23:32:46.806Z,84.60
2024-03-15T23:35:13.726Z,84.90
2024-03-15T23:37:42.146Z,85.00
2024-03-15T23:40:13.816Z,85.20
2024-03-15T23:42:40.981Z,85.30
2024-03-15T23:45:08.295Z,85.40
2024-03-15T23:47:36.221Z,85.40
2024-03-15T23:50:05.141Z,85.30
2024-03-15T23:52:31.864Z,85.40
2024-03-15T23:54:58.767Z,85.50
2024-03-15T23:57:25.864Z,85.30
2024-03-15T23:59:52.869Z,85.20
